Time;durP1;ratioP1;P1;durP2;ratioP2;P2;SDS_P1;SDS_P2;PMS_P1;PMS_P2;Temp;Humidity;BMP_temperature;BMP_pressure;BME280_temperature;BME280_humidity;BME280_pressure;Samples;Min_cycle;Max_cycle;Signal;HPM_P1;HPM_P2
2022/04/20 00:01:42;;;;;;;10.87;4.20;;;4.00;45.00;;;;;;5030876;28;47209;-62
2022/04/20 00:04:11;;;;;;;6.53;4.27;;;3.90;44.90;;;;;;5032859;28;46281;-63
2022/04/20 00:06:37;;;;;;;6.60;3.63;;;3.80;44.90;;;;;;5034759;28;45803;-63
2022/04/20 00:09:03;;;;;;;6.37;3.70;;;3.80;44.90;;;;;;5031506;28;46385;-63
2022/04/20 00:11:28;;;;;;;7.30;4.40;;;3.80;44.90;;;;;;5030160;28;46456;-64
2022/04/20 00:13:54;;;;;;;6.33;4.00;;;3.80;44.90;;;;;;5030926;28;46391;-62
2022/04/20 00:16:19;;;;;;;5.47;3.70;;;3.80;45.00;;;;;;5029315;28;46425;-63
2022/04/20 00:18:45;;;;;;;5.00;3.70;;;3.70;45.10;;;;;;5034506;28;46839;-64
2022/04/20 00:21:10;;;;;;;5.60;3.63;;;3.70;45.20;;;;;;5026919;28;46981;-65
2022/04/20 00:23:36;;;;;;;5.97;3.90;;;3.80;45.30;;;;;;5030944;28;46394;-64
2022/04/20 00:26:02;;;;;;;5.73;3.70;;;3.60;45.10;;;;;;5030570;28;46508;-65
2022/04/20 00:28:27;;;;;;;5.80;3.83;;;3.60;45.40;;;;;;5028403;28;46352;-62
2022/04/20 00:30:53;;;;;;;6.67;3.47;;;3.50;45.40;;;;;;5032942;28;46934;-63
2022/04/20 00:33:18;;;;;;;4.90;3.83;;;3.30;45.30;;;;;;5027394;28;46397;-64
2022/04/20 00:35:44;;;;;;;5.40;3.97;;;3.10;45.40;;;;;;5030202;28;45732;-64
2022/04/20 00:38:10;;;;;;;4.80;3.23;;;3.00;45.50;;;;;;5028464;28;45997;-63
2022/04/20 00:40:36;;;;;;;5.33;3.53;;;2.90;45.80;;;;;;5030540;28;46304;-64
2022/04/20 00:43:02;;;;;;;8.00;4.40;;;2.80;46.10;;;;;;5031043;28;46366;-63
2022/04/20 00:45:29;;;;;;;6.73;4.10;;;2.70;46.10;;;;;;5028535;28;46464;-60
2022/04/20 00:47:56;;;;;;;8.93;4.40;;;2.70;46.20;;;;;;5032810;28;46746;-64
2022/04/20 00:50:22;;;;;;;5.30;3.90;;;2.80;46.40;;;;;;5024449;28;46292;-63
2022/04/20 00:52:48;;;;;;;6.22;3.90;;;2.70;46.00;;;;;;5034275;28;46315;-64
2022/04/20 00:55:14;;;;;;;8.10;4.20;;;2.70;46.00;;;;;;5034527;28;46356;-64
2022/04/20 00:57:39;;;;;;;10.63;4.57;;;2.60;46.00;;;;;;5029781;28;46259;-63
2022/04/20 01:00:05;;;;;;;5.43;3.70;;;2.60;46.30;;;;;;5030489;28;47106;-64
2022/04/20 01:02:31;;;;;;;10.18;4.28;;;2.50;46.20;;;;;;5034793;28;46341;-64
2022/04/20 01:04:57;;;;;;;9.30;4.80;;;2.50;46.10;;;;;;5027095;28;46421;-62
2022/04/20 01:07:22;;;;;;;6.37;4.97;;;2.50;46.20;;;;;;5031133;28;46480;-63
2022/04/20 01:09:49;;;;;;;7.10;4.87;;;2.50;46.10;;;;;;5030659;28;47327;-63
2022/04/20 01:12:17;;;;;;;7.75;4.88;;;2.50;46.20;;;;;;5032775;28;46410;-63
2022/04/20 01:14:43;;;;;;;6.97;4.55;;;2.50;46.20;;;;;;5030197;28;46379;-63
2022/04/20 01:17:09;;;;;;;9.60;5.15;;;2.60;46.30;;;;;;5036647;28;46595;-63
2022/04/20 01:19:39;;;;;;;7.70;4.80;;;2.50;46.20;;;;;;5030412;28;46470;-62
2022/04/20 01:22:06;;;;;;;5.95;4.45;;;2.60;46.30;;;;;;5037582;28;46429;-65
2022/04/20 01:24:32;;;;;;;7.47;4.90;;;2.60;46.30;;;;;;5031532;28;46410;-63
2022/04/20 01:26:58;;;;;;;7.20;5.37;;;2.60;46.30;;;;;;5031845;28;46517;-63
2022/04/20 01:29:26;;;;;;;5.90;4.83;;;2.60;46.30;;;;;;5032871;28;47999;-64
2022/04/20 01:31:52;;;;;;;7.00;4.72;;;2.60;46.30;;;;;;5029066;28;46566;-64
2022/04/20 01:34:17;;;;;;;6.30;4.70;;;2.60;46.30;;;;;;5034798;28;46521;-64
2022/04/20 01:36:43;;;;;;;7.37;4.83;;;2.60;46.30;;;;;;5031333;28;46513;-62
2022/04/20 01:39:08;;;;;;;6.90;4.73;;;2.60;46.40;;;;;;5030237;28;46351;-62
2022/04/20 01:41:34;;;;;;;7.90;4.83;;;2.60;46.60;;;;;;5033168;28;46428;-63
2022/04/20 01:44:00;;;;;;;8.40;4.47;;;2.60;47.10;;;;;;5028598;28;45822;-61
2022/04/20 01:46:25;;;;;;;7.23;4.77;;;2.60;48.20;;;;;;5029203;28;46305;-64
2022/04/20 01:48:51;;;;;;;5.90;4.50;;;2.60;47.20;;;;;;5029029;28;47006;-61
2022/04/20 01:54:00;;;;;;;8.50;5.30;;;2.50;47.70;;;;;;5031661;28;46306;-63
2022/04/20 01:56:26;;;;;;;6.80;5.67;;;2.50;48.30;;;;;;5025548;28;46421;-63
2022/04/20 01:58:52;;;;;;;7.63;5.17;;;2.50;48.50;;;;;;5029296;28;47009;-63
2022/04/20 02:04:02;;;;;;;8.57;5.68;;;2.40;48.60;;;;;;5028895;28;46396;-64
2022/04/20 02:06:28;;;;;;;7.00;5.10;;;2.40;48.70;;;;;;5027166;28;46640;-63
2022/04/20 02:08:53;;;;;;;6.87;5.50;;;2.30;48.90;;;;;;5024906;28;46624;-65
2022/04/20 02:11:19;;;;;;;12.13;6.40;;;2.30;49.50;;;;;;5029221;28;46383;-63
2022/04/20 02:13:45;;;;;;;9.17;6.23;;;2.20;49.50;;;;;;5036541;28;45883;-63
2022/04/20 02:16:11;;;;;;;10.13;6.40;;;2.20;49.50;;;;;;5030624;28;46408;-62
2022/04/20 02:18:36;;;;;;;11.13;6.20;;;2.20;49.40;;;;;;5030898;28;46524;-65
2022/04/20 02:21:02;;;;;;;8.50;6.10;;;2.20;49.50;;;;;;5032600;28;46482;-63
2022/04/20 02:23:28;;;;;;;10.00;6.13;;;2.10;50.50;;;;;;5031441;28;46469;-63
2022/04/20 02:25:54;;;;;;;7.40;5.30;;;2.10;49.40;;;;;;5032494;28;46589;-64
2022/04/20 02:28:19;;;;;;;9.30;6.25;;;2.10;49.40;;;;;;5026930;28;46489;-63
2022/04/20 02:30:45;;;;;;;13.13;6.73;;;2.10;49.40;;;;;;5028790;28;46401;-63
2022/04/20 02:33:10;;;;;;;9.33;6.30;;;2.10;49.50;;;;;;5028820;28;46465;-63
2022/04/20 02:35:37;;;;;;;9.27;6.60;;;2.10;49.60;;;;;;5028894;28;46516;-63
2022/04/20 02:38:03;;;;;;;10.02;6.50;;;2.10;49.60;;;;;;5028376;28;47125;-63
2022/04/20 02:40:30;;;;;;;8.60;5.78;;;2.10;49.80;;;;;;5026735;28;46480;-63
2022/04/20 02:42:56;;;;;;;9.55;6.95;;;2.10;49.50;;;;;;5024999;28;46389;-63
2022/04/20 02:45:22;;;;;;;9.80;6.83;;;2.10;49.70;;;;;;5025450;28;46445;-64
2022/04/20 02:47:48;;;;;;;8.17;6.13;;;2.00;50.20;;;;;;5027229;28;46720;-65
2022/04/20 02:50:13;;;;;;;10.90;7.50;;;2.00;50.30;;;;;;5022262;28;46661;-64
2022/04/20 02:52:39;;;;;;;10.00;6.70;;;2.00;50.30;;;;;;5029412;28;46553;-63
2022/04/20 02:55:05;;;;;;;10.90;7.20;;;2.00;50.50;;;;;;5025812;28;46636;-64
2022/04/20 02:57:30;;;;;;;10.03;7.30;;;2.00;50.40;;;;;;5028676;28;46431;-63
2022/04/20 02:59:56;;;;;;;10.50;7.77;;;2.00;50.40;;;;;;5028021;28;46374;-63
2022/04/20 03:02:21;;;;;;;12.87;7.10;;;2.00;50.50;;;;;;5031779;28;46465;-64
2022/04/20 03:04:47;;;;;;;11.80;7.63;;;1.90;50.50;;;;;;5034212;28;46581;-64
2022/04/20 03:07:12;;;;;;;13.70;7.40;;;1.90;51.00;;;;;;5027382;28;47017;-64
2022/04/20 03:09:38;;;;;;;9.67;7.17;;;1.90;51.40;;;;;;5036799;28;46691;-64
2022/04/20 03:12:04;;;;;;;9.60;7.33;;;1.90;51.80;;;;;;5029605;28;46461;-61
2022/04/20 03:14:29;;;;;;;9.57;6.70;;;1.80;52.00;;;;;;5032978;28;46404;-62
2022/04/20 03:16:55;;;;;;;9.87;7.63;;;1.80;52.30;;;;;;5032973;28;46378;-63
2022/04/20 03:19:21;;;;;;;13.70;7.63;;;1.80;52.20;;;;;;5024037;28;46079;-62
2022/04/20 03:21:47;;;;;;;12.18;7.68;;;1.80;53.00;;;;;;5035204;28;46406;-63
2022/04/20 03:24:13;;;;;;;11.30;6.90;;;1.90;53.10;;;;;;5031403;28;46335;-62
2022/04/20 03:26:39;;;;;;;9.88;7.55;;;1.90;53.40;;;;;;5029789;28;46396;-64
2022/04/20 03:29:04;;;;;;;14.23;7.57;;;1.90;53.30;;;;;;5030106;28;46432;-61
2022/04/20 03:31:32;;;;;;;16.10;8.57;;;1.90;53.60;;;;;;5029884;28;46355;-62
2022/04/20 03:33:57;;;;;;;11.45;7.90;;;1.80;53.80;;;;;;5032106;28;46318;-63
2022/04/20 03:36:23;;;;;;;10.47;7.60;;;1.80;54.60;;;;;;5025646;28;47168;-64
2022/04/20 03:38:48;;;;;;;12.07;8.37;;;1.80;54.50;;;;;;5032541;28;46358;-63
2022/04/20 03:41:14;;;;;;;12.07;8.40;;;1.80;54.50;;;;;;5029192;28;46405;-62
2022/04/20 03:43:40;;;;;;;11.57;9.03;;;1.80;54.30;;;;;;5035200;28;46405;-63
2022/04/20 03:46:06;;;;;;;14.03;9.33;;;1.80;54.30;;;;;;5034986;28;47019;-62
2022/04/20 03:48:31;;;;;;;11.20;8.70;;;1.80;54.30;;;;;;5029543;28;46504;-62
2022/04/20 03:50:57;;;;;;;14.10;9.90;;;1.80;54.30;;;;;;5037445;28;46401;-63
2022/04/20 03:53:23;;;;;;;12.60;9.17;;;1.90;54.40;;;;;;5030200;28;46456;-63
2022/04/20 03:55:49;;;;;;;14.80;8.70;;;1.80;55.00;;;;;;5036152;28;46490;-65
2022/04/20 03:58:14;;;;;;;12.65;8.50;;;1.80;55.90;;;;;;5033243;28;46299;-65
2022/04/20 04:00:40;;;;;;;14.63;9.60;;;1.80;56.40;;;;;;5030358;28;46304;-64
2022/04/20 04:03:06;;;;;;;16.00;9.43;;;1.80;56.70;;;;;;5029303;28;46343;-64
2022/04/20 04:05:32;;;;;;;16.23;11.30;;;1.80;56.60;;;;;;5031915;28;46617;-64
2022/04/20 04:07:57;;;;;;;14.85;10.23;;;1.80;56.60;;;;;;5033775;28;46083;-63
2022/04/20 04:10:23;;;;;;;14.63;10.30;;;1.80;56.60;;;;;;5031666;28;46315;-63
2022/04/20 04:12:48;;;;;;;12.93;9.53;;;1.70;56.60;;;;;;5030480;28;46376;-63
2022/04/20 04:15:14;;;;;;;16.23;12.00;;;1.70;56.50;;;;;;5034044;28;47024;-63
2022/04/20 04:17:39;;;;;;;20.53;14.50;;;1.70;56.50;;;;;;5030546;28;46375;-64
2022/04/20 04:20:07;;;;;;;15.80;11.50;;;1.70;56.20;;;;;;5029361;28;46400;-64
2022/04/20 04:22:34;;;;;;;17.73;12.07;;;1.70;56.10;;;;;;5032547;28;46458;-64
2022/04/20 04:25:00;;;;;;;16.77;11.18;;;1.70;56.40;;;;;;5027333;28;48080;-62
2022/04/20 04:27:25;;;;;;;19.50;11.30;;;1.70;56.60;;;;;;5031556;28;46383;-64
2022/04/20 04:29:51;;;;;;;16.50;11.73;;;1.70;56.70;;;;;;5028654;28;46343;-65
2022/04/20 04:32:16;;;;;;;18.70;12.47;;;1.60;56.50;;;;;;5028957;28;46552;-64
2022/04/20 04:34:42;;;;;;;16.87;11.80;;;1.70;56.40;;;;;;5029992;28;46363;-63
2022/04/20 04:37:10;;;;;;;17.67;11.10;;;1.70;56.10;;;;;;5024232;28;46379;-64
2022/04/20 04:39:35;;;;;;;27.20;11.77;;;1.80;55.70;;;;;;5029836;28;46295;-65
2022/04/20 04:42:01;;;;;;;19.00;12.07;;;1.80;55.70;;;;;;5038041;28;46426;-64
2022/04/20 04:44:28;;;;;;;18.10;12.43;;;1.80;55.80;;;;;;5032820;28;47043;-63
2022/04/20 04:49:37;;;;;;;17.52;11.98;;;1.90;56.00;;;;;;5031226;28;45905;-64
2022/04/20 04:52:06;;;;;;;16.17;11.20;;;1.90;55.60;;;;;;5030364;28;46287;-64
2022/04/20 04:54:33;;;;;;;17.17;11.45;;;1.90;55.50;;;;;;5033540;28;47125;-64
2022/04/20 04:56:59;;;;;;;28.90;13.55;;;1.90;55.50;;;;;;5030431;28;46420;-63
2022/04/20 04:59:24;;;;;;;26.20;13.37;;;2.00;55.60;;;;;;5030592;28;45941;-62
2022/04/20 05:01:50;;;;;;;20.73;12.73;;;2.00;55.80;;;;;;5031469;28;46304;-62
2022/04/20 05:04:16;;;;;;;17.43;12.73;;;2.10;55.70;;;;;;5030153;28;46386;-63
2022/04/20 05:06:42;;;;;;;21.33;13.03;;;2.20;55.50;;;;;;5032128;28;46578;-62
2022/04/20 05:09:08;;;;;;;23.55;12.85;;;2.30;55.50;;;;;;5031385;28;46438;-64
2022/04/20 05:11:33;;;;;;;19.88;13.73;;;2.50;56.00;;;;;;5031789;28;46409;-63
2022/04/20 05:13:59;;;;;;;25.63;14.27;;;2.50;55.60;;;;;;5029845;28;46488;-64
2022/04/20 05:16:25;;;;;;;18.47;12.30;;;2.70;55.60;;;;;;5027289;28;46441;-62
2022/04/20 05:18:51;;;;;;;21.53;15.10;;;2.80;55.00;;;;;;5027592;28;46521;-64
2022/04/20 05:21:17;;;;;;;18.60;11.57;;;3.60;54.50;;;;;;5032689;28;46336;-64
2022/04/20 05:23:43;;;;;;;15.05;10.25;;;4.60;54.40;;;;;;5033305;28;48007;-64
2022/04/20 05:26:09;;;;;;;12.40;9.07;;;5.40;54.40;;;;;;5043537;28;46497;-65
2022/04/20 05:28:34;;;;;;;13.17;9.40;;;6.10;52.60;;;;;;5035820;28;46401;-63
2022/04/20 05:31:00;;;;;;;11.93;8.43;;;6.80;51.20;;;;;;5032707;28;46244;-64
2022/04/20 05:33:25;;;;;;;12.80;9.07;;;7.30;50.40;;;;;;5031255;28;46408;-65
2022/04/20 05:35:51;;;;;;;12.03;8.80;;;7.80;49.80;;;;;;5026558;28;46256;-64
2022/04/20 05:43:44;;;;;;;14.00;9.23;;;8.80;48.30;;;;;;5031896;28;46729;-63
2022/04/20 05:46:13;;;;;;;12.60;9.10;;;8.90;49.00;;;;;;5025185;28;46378;-65
2022/04/20 05:48:38;;;;;;;11.60;8.73;;;9.20;45.30;;;;;;5026960;28;45839;-63
2022/04/20 05:51:04;;;;;;;14.67;9.10;;;9.50;44.60;;;;;;5026476;28;46365;-63
2022/04/20 05:53:30;;;;;;;11.53;9.23;;;9.50;42.40;;;;;;5026229;28;46505;-63
2022/04/20 05:55:55;;;;;;;13.33;9.03;;;9.70;42.20;;;;;;5028090;28;46275;-63
2022/04/20 05:58:21;;;;;;;11.90;8.50;;;9.90;41.80;;;;;;5026988;28;46430;-63
2022/04/20 06:00:47;;;;;;;10.50;7.97;;;10.30;38.70;;;;;;5030405;28;46018;-63
2022/04/20 06:03:13;;;;;;;12.30;8.47;;;10.70;38.60;;;;;;5029184;28;46446;-64
2022/04/20 06:05:39;;;;;;;12.70;8.00;;;10.80;37.80;;;;;;5029615;28;46374;-65
2022/04/20 06:08:05;;;;;;;14.33;9.97;;;10.90;36.10;;;;;;5032921;28;46334;-65
2022/04/20 06:10:32;;;;;;;14.20;8.93;;;10.80;35.40;;;;;;5027075;28;46433;-64
2022/04/20 06:12:59;;;;;;;11.17;8.40;;;11.00;35.50;;;;;;5030218;28;46532;-64
2022/04/20 06:15:25;;;;;;;10.50;8.43;;;11.00;33.70;;;;;;5030212;28;46329;-64
2022/04/20 06:17:51;;;;;;;12.27;8.23;;;11.10;33.30;;;;;;5032145;28;46471;-63
2022/04/20 06:20:17;;;;;;;10.73;8.93;;;11.20;32.20;;;;;;5029149;28;46153;-65
2022/04/20 06:22:43;;;;;;;12.53;8.73;;;11.10;30.90;;;;;;5029825;28;46426;-63
2022/04/20 06:25:09;;;;;;;16.30;9.10;;;11.00;29.50;;;;;;5029174;28;46349;-63
2022/04/20 06:27:35;;;;;;;15.00;9.07;;;10.10;30.70;;;;;;5029904;28;46590;-64
2022/04/20 06:30:01;;;;;;;14.03;9.10;;;9.00;34.70;;;;;;5028140;28;46406;-64
2022/04/20 06:32:28;;;;;;;11.90;9.03;;;8.20;37.80;;;;;;5030281;28;46902;-64
2022/04/20 06:34:54;;;;;;;11.23;8.53;;;7.50;39.70;;;;;;5032880;28;46405;-64
2022/04/20 06:37:23;;;;;;;11.00;8.27;;;7.50;40.10;;;;;;5034680;28;46469;-64
2022/04/20 06:39:49;;;;;;;12.07;8.73;;;8.60;36.80;;;;;;5033944;28;46411;-63
2022/04/20 06:42:15;;;;;;;15.87;8.70;;;9.30;33.90;;;;;;5035894;28;47121;-63
2022/04/20 06:44:41;;;;;;;13.40;9.47;;;9.50;33.30;;;;;;5032039;28;46401;-63
2022/04/20 06:47:07;;;;;;;13.90;10.20;;;8.70;35.80;;;;;;5029740;28;46915;-64
2022/04/20 06:49:33;;;;;;;15.57;8.93;;;8.00;38.00;;;;;;5031664;28;46531;-64
2022/04/20 07:00:12;;;;;;;11.90;8.53;;;7.40;41.30;;;;;;5026808;28;46640;-63
2022/04/20 07:02:37;;;;;;;11.67;8.50;;;7.40;41.60;;;;;;5031595;28;46430;-63
2022/04/20 07:05:05;;;;;;;14.30;8.33;;;7.40;41.50;;;;;;5024409;28;46425;-63
2022/04/20 07:07:30;;;;;;;9.93;7.30;;;7.40;42.10;;;;;;5030522;28;46653;-62
2022/04/20 07:09:56;;;;;;;12.70;7.87;;;7.30;42.30;;;;;;5033789;28;45893;-62
2022/04/20 07:12:21;;;;;;;10.37;7.53;;;7.40;42.40;;;;;;5036118;28;47346;-63
2022/04/20 07:14:47;;;;;;;15.90;8.90;;;7.50;41.90;;;;;;5035467;28;46397;-65
2022/04/20 07:17:13;;;;;;;11.93;8.13;;;7.60;41.70;;;;;;5036404;28;46378;-65
2022/04/20 07:19:38;;;;;;;11.60;7.40;;;7.60;41.80;;;;;;5031105;28;46509;-64
2022/04/20 07:22:04;;;;;;;13.70;7.90;;;7.60;41.70;;;;;;5033997;28;46948;-64
2022/04/20 07:24:31;;;;;;;11.17;7.90;;;7.80;41.60;;;;;;5032992;28;46361;-64
2022/04/20 07:26:56;;;;;;;10.53;7.93;;;7.80;41.30;;;;;;5030302;28;46347;-65
2022/04/20 07:29:22;;;;;;;11.07;7.87;;;7.70;41.30;;;;;;5033026;28;46518;-64
2022/04/20 07:31:48;;;;;;;9.40;6.97;;;7.80;41.50;;;;;;5028752;28;46411;-64
2022/04/20 07:34:13;;;;;;;10.40;7.30;;;7.90;41.20;;;;;;5031992;28;46429;-63
2022/04/20 07:36:39;;;;;;;11.03;6.97;;;7.80;42.10;;;;;;5031775;28;46435;-62
2022/04/20 07:39:04;;;;;;;9.50;6.50;;;7.80;41.20;;;;;;5029416;28;45923;-64
2022/04/20 07:41:30;;;;;;;11.07;6.63;;;7.80;41.00;;;;;;5033280;28;47087;-64
2022/04/20 07:43:55;;;;;;;13.20;7.43;;;8.00;40.70;;;;;;5030710;28;46402;-64
2022/04/20 07:46:22;;;;;;;11.43;7.57;;;8.20;40.50;;;;;;5029939;28;46521;-61
2022/04/20 07:48:48;;;;;;;10.53;7.23;;;8.30;40.00;;;;;;5032722;28;46485;-64
2022/04/20 07:51:14;;;;;;;11.33;6.63;;;8.50;39.30;;;;;;5027862;28;46311;-64
2022/04/20 07:53:39;;;;;;;10.03;5.93;;;8.50;38.40;;;;;;5030040;28;46365;-64
2022/04/20 07:56:05;;;;;;;12.20;7.47;;;8.50;38.10;;;;;;5029638;28;46474;-66
2022/04/20 07:58:31;;;;;;;7.87;5.60;;;8.60;38.20;;;;;;5026835;28;46801;-64
2022/04/20 08:00:57;;;;;;;12.37;7.57;;;8.60;38.20;;;;;;5033508;28;46435;-64
2022/04/20 08:03:24;;;;;;;9.63;6.10;;;8.70;37.20;;;;;;5025835;28;45877;-63
2022/04/20 08:05:55;;;;;;;7.63;5.60;;;8.60;36.20;;;;;;5030784;28;46409;-63
2022/04/20 08:08:23;;;;;;;9.50;6.20;;;8.70;36.70;;;;;;5026819;28;46446;-63
2022/04/20 08:10:48;;;;;;;12.83;6.13;;;8.70;35.50;;;;;;5027937;28;46571;-62
2022/04/20 08:15:58;;;;;;;8.70;6.30;;;9.00;35.50;;;;;;5026490;28;46393;-63
2022/04/20 08:18:26;;;;;;;10.03;6.03;;;9.00;35.10;;;;;;5033006;28;46426;-64
2022/04/20 08:20:52;;;;;;;8.03;5.47;;;9.20;35.20;;;;;;5025611;28;46491;-62
2022/04/20 08:23:19;;;;;;;7.50;4.70;;;9.10;34.20;;;;;;5031361;28;46287;-64
2022/04/20 08:25:45;;;;;;;8.13;5.40;;;8.90;33.30;;;;;;5034477;28;45781;-63
2022/04/20 08:28:11;;;;;;;8.00;5.50;;;9.00;33.00;;;;;;5027719;28;46374;-63
2022/04/20 08:30:38;;;;;;;8.07;5.10;;;9.00;33.10;;;;;;5032728;28;46363;-63
2022/04/20 08:33:08;;;;;;;8.40;4.73;;;9.20;32.80;;;;;;5027663;28;46439;-62
2022/04/20 08:35:37;;;;;;;6.80;4.37;;;9.20;31.50;;;;;;5030470;28;46245;-64
2022/04/20 08:38:04;;;;;;;10.07;4.93;;;9.20;30.00;;;;;;5027955;28;46154;-61
2022/04/20 08:40:31;;;;;;;5.77;3.80;;;9.30;30.00;;;;;;5033636;28;46118;-62
2022/04/20 08:43:02;;;;;;;9.10;4.70;;;9.30;29.10;;;;;;5032960;28;45687;-64
2022/04/20 08:45:28;;;;;;;7.00;4.30;;;9.30;29.30;;;;;;5031387;28;46409;-62
2022/04/20 08:47:56;;;;;;;8.60;4.40;;;9.50;28.90;;;;;;5033044;28;46476;-63
2022/04/20 08:50:23;;;;;;;7.80;5.17;;;9.50;27.80;;;;;;5027749;28;46272;-63
2022/04/20 08:52:50;;;;;;;8.43;4.90;;;9.60;28.30;;;;;;5034732;28;46377;-64
2022/04/20 08:55:19;;;;;;;6.70;4.33;;;9.60;28.60;;;;;;5030599;28;46370;-63
2022/04/20 08:57:46;;;;;;;9.23;4.70;;;9.80;28.10;;;;;;5031872;28;46503;-63
2022/04/20 09:00:21;;;;;;;6.83;4.20;;;9.80;28.40;;;;;;5032341;28;46669;-63
2022/04/20 09:02:55;;;;;;;5.87;4.17;;;9.80;27.40;;;;;;5029506;28;46517;-63
2022/04/20 09:05:21;;;;;;;7.33;4.40;;;9.70;26.90;;;;;;5032502;28;46510;-63
2022/04/20 09:07:47;;;;;;;8.63;4.60;;;9.70;27.10;;;;;;5029882;28;46637;-63
2022/04/20 09:10:13;;;;;;;6.97;4.27;;;9.70;26.70;;;;;;5031329;28;47191;-63
2022/04/20 09:12:42;;;;;;;6.37;4.27;;;10.00;26.10;;;;;;5030069;28;46303;-64
2022/04/20 09:15:09;;;;;;;7.40;4.57;;;10.10;26.20;;;;;;5029155;28;46264;-63
2022/04/20 09:17:46;;;;;;;6.37;3.83;;;10.20;26.20;;;;;;5031093;28;46567;-63
2022/04/20 09:20:16;;;;;;;9.00;3.67;;;10.30;26.00;;;;;;5028850;28;46403;-62
2022/04/20 09:23:08;;;;;;;13.40;4.63;;;10.20;24.40;;;;;;5027022;28;46412;-62
2022/04/20 09:25:34;;;;;;;6.30;4.40;;;10.30;24.70;;;;;;5032509;28;46661;-63
2022/04/20 09:28:01;;;;;;;13.10;4.43;;;10.20;25.00;;;;;;5027475;28;45923;-65
2022/04/20 09:30:35;;;;;;;6.40;4.33;;;10.30;24.90;;;;;;5029825;28;46458;-64
2022/04/20 09:33:06;;;;;;;7.10;4.30;;;10.30;25.00;;;;;;5023983;28;46335;-65
2022/04/20 09:35:53;;;;;;;7.13;4.73;;;10.40;25.30;;;;;;5028559;28;46645;-63
2022/04/20 09:38:20;;;;;;;9.83;4.00;;;10.70;25.30;;;;;;5025734;28;46395;-65
2022/04/20 09:40:46;;;;;;;6.23;4.43;;;10.80;24.90;;;;;;5031970;28;46768;-63
2022/04/20 09:43:20;;;;;;;7.50;3.97;;;10.70;24.40;;;;;;5033508;28;46674;-63
2022/04/20 09:46:04;;;;;;;6.70;4.03;;;10.70;23.90;;;;;;5036115;28;46426;-63
2022/04/20 09:51:20;;;;;;;8.70;4.90;;;10.70;23.80;;;;;;5033046;28;46571;-64
2022/04/20 09:53:49;;;;;;;6.43;4.90;;;10.60;23.90;;;;;;5030431;28;46618;-63
2022/04/20 09:56:16;;;;;;;15.83;4.77;;;10.80;24.40;;;;;;5030259;28;46413;-64
2022/04/20 09:58:44;;;;;;;7.07;4.10;;;10.90;24.30;;;;;;5031151;28;45890;-64
2022/04/20 10:01:24;;;;;;;6.30;4.07;;;10.80;24.90;;;;;;5027180;28;47162;-63
2022/04/20 10:03:54;;;;;;;7.70;3.40;;;10.90;22.80;;;;;;5030193;28;46454;-64
2022/04/20 10:06:20;;;;;;;7.20;5.03;;;10.90;22.70;;;;;;5029719;28;46448;-65
2022/04/20 10:08:46;;;;;;;9.40;4.70;;;10.90;23.80;;;;;;5028445;28;46522;-64
2022/04/20 10:11:15;;;;;;;7.17;4.90;;;10.80;22.90;;;;;;5027039;28;48396;-64
2022/04/20 10:13:41;;;;;;;4.43;3.00;;;11.00;23.10;;;;;;5027940;28;46373;-64
2022/04/20 10:16:10;;;;;;;5.00;3.50;;;10.90;22.40;;;;;;5028717;28;46476;-64
2022/04/20 10:18:37;;;;;;;6.83;4.07;;;11.10;21.60;;;;;;5026689;28;46413;-63
2022/04/20 10:21:06;;;;;;;6.40;3.70;;;11.10;21.20;;;;;;5028878;28;46374;-64
2022/04/20 10:23:34;;;;;;;9.10;5.43;;;11.10;20.90;;;;;;5029958;28;46406;-64
2022/04/20 10:26:05;;;;;;;9.07;4.30;;;11.20;21.10;;;;;;5024903;28;46435;-63
2022/04/20 10:28:51;;;;;;;8.40;3.70;;;11.40;21.60;;;;;;5030101;28;46240;-64
2022/04/20 10:31:26;;;;;;;5.63;3.37;;;11.50;20.80;;;;;;5023675;28;47067;-62
2022/04/20 10:33:52;;;;;;;7.60;4.50;;;11.50;20.50;;;;;;5028918;28;46488;-63
2022/04/20 10:36:28;;;;;;;6.70;4.20;;;11.50;20.70;;;;;;5027674;28;46597;-63
2022/04/20 10:39:22;;;;;;;6.70;4.20;;;11.50;20.60;;;;;;5028842;28;46597;-63
2022/04/20 10:42:16;;;;;;;5.57;3.87;;;11.40;20.10;;;;;;5026332;28;47105;-63
2022/04/20 10:44:49;;;;;;;6.70;4.20;;;11.40;20.50;;;;;;5022870;28;46732;-64
2022/04/20 10:47:20;;;;;;;6.37;4.30;;;11.50;20.40;;;;;;5028789;28;46613;-64
2022/04/20 10:49:45;;;;;;;5.73;3.70;;;11.40;19.70;;;;;;5035487;28;46370;-64
2022/04/20 10:52:35;;;;;;;7.07;4.30;;;11.40;19.90;;;;;;5027766;28;47357;-63
2022/04/20 10:55:00;;;;;;;5.43;4.10;;;11.60;20.50;;;;;;5027582;28;46285;-63
2022/04/20 10:57:54;;;;;;;9.13;4.30;;;11.80;20.50;;;;;;5027513;28;46377;-64
2022/04/20 11:00:19;;;;;;;5.33;3.70;;;11.80;19.40;;;;;;5028657;28;46568;-63
2022/04/20 11:03:00;;;;;;;7.80;4.70;;;12.00;19.90;;;;;;5026233;28;47222;-62
2022/04/20 11:05:26;;;;;;;7.10;4.80;;;12.00;19.80;;;;;;5031176;28;46382;-62
2022/04/20 11:08:22;;;;;;;11.73;4.93;;;11.90;20.10;;;;;;5030165;28;46376;-62
2022/04/20 11:19:12;;;;;;;5.60;4.20;;;11.80;19.90;;;;;;5025374;28;46433;-63
2022/04/20 11:22:00;;;;;;;7.23;3.90;;;11.80;19.70;;;;;;5032358;28;46473;-64
2022/04/20 11:24:28;;;;;;;5.70;3.97;;;11.90;19.30;;;;;;5029840;28;46924;-63
2022/04/20 11:26:55;;;;;;;8.90;4.53;;;11.90;19.60;;;;;;5034447;28;46512;-64
2022/04/20 11:29:23;;;;;;;7.10;4.20;;;11.90;20.10;;;;;;5029249;28;46790;-64
2022/04/20 11:31:48;;;;;;;10.90;4.37;;;12.10;20.20;;;;;;5030940;28;46449;-63
2022/04/20 11:34:16;;;;;;;8.00;4.73;;;12.30;19.70;;;;;;5033277;28;46263;-62
2022/04/20 11:36:46;;;;;;;5.90;4.60;;;12.30;19.70;;;;;;5031285;28;46609;-63
2022/04/20 11:39:14;;;;;;;7.10;4.40;;;12.30;19.70;;;;;;5031994;28;46458;-64
2022/04/20 11:41:53;;;;;;;6.10;4.30;;;12.20;19.70;;;;;;5029230;28;46515;-63
2022/04/20 11:44:24;;;;;;;12.30;4.87;;;12.20;20.10;;;;;;5030422;28;48144;-64
2022/04/20 11:46:50;;;;;;;9.97;4.57;;;12.30;19.70;;;;;;5030184;28;46488;-64
2022/04/20 11:49:16;;;;;;;5.77;4.37;;;12.40;19.50;;;;;;5033610;28;46486;-64
2022/04/20 11:51:53;;;;;;;6.37;4.10;;;12.40;19.20;;;;;;5030101;28;46603;-65
2022/04/20 11:54:20;;;;;;;7.03;4.20;;;12.40;19.30;;;;;;5029814;28;46406;-63
2022/04/20 11:56:45;;;;;;;7.93;4.30;;;12.30;18.60;;;;;;5026111;28;46511;-63
2022/04/20 11:59:11;;;;;;;8.23;4.77;;;12.30;18.90;;;;;;5030672;28;46386;-64
2022/04/20 12:01:38;;;;;;;7.10;3.97;;;12.40;19.20;;;;;;5026845;28;46432;-63
2022/04/20 12:04:11;;;;;;;9.07;3.93;;;12.30;19.00;;;;;;5028343;28;46899;-65
2022/04/20 12:06:42;;;;;;;9.27;4.27;;;12.30;18.80;;;;;;5027915;28;46405;-63
2022/04/20 12:09:08;;;;;;;6.30;4.30;;;12.50;18.20;;;;;;5027369;28;46448;-63
2022/04/20 12:11:34;;;;;;;9.30;4.60;;;12.50;17.90;;;;;;5030649;28;46583;-64
2022/04/20 12:14:00;;;;;;;7.80;4.33;;;12.60;18.00;;;;;;5033758;28;46366;-63
2022/04/20 12:16:25;;;;;;;7.00;4.17;;;12.60;18.30;;;;;;5031964;28;46403;-64
2022/04/20 12:18:52;;;;;;;6.50;4.40;;;12.70;18.30;;;;;;5032880;28;46375;-63
2022/04/20 12:21:39;;;;;;;11.73;4.57;;;12.70;18.70;;;;;;5032785;28;46628;-63
2022/04/20 12:24:06;;;;;;;7.07;4.77;;;12.80;18.40;;;;;;5032346;28;48440;-62
2022/04/20 12:26:32;;;;;;;7.93;4.30;;;12.80;18.50;;;;;;5030874;28;46453;-64
2022/04/20 12:29:01;;;;;;;9.10;4.60;;;12.70;18.40;;;;;;5035020;28;46595;-62
2022/04/20 12:31:28;;;;;;;9.10;4.90;;;12.80;18.50;;;;;;5032156;28;46462;-62
2022/04/20 12:34:04;;;;;;;5.90;4.13;;;12.80;17.90;;;;;;5031631;28;48753;-61
2022/04/20 12:36:31;;;;;;;6.13;4.40;;;12.90;17.40;;;;;;5029422;28;46453;-62
2022/04/20 12:38:58;;;;;;;7.67;4.90;;;13.10;17.50;;;;;;5028299;28;46359;-63
2022/04/20 12:41:36;;;;;;;8.57;4.70;;;12.90;17.40;;;;;;5027053;28;46360;-64
2022/04/20 12:44:23;;;;;;;8.87;5.10;;;13.00;17.40;;;;;;5028749;28;47214;-65
2022/04/20 12:46:48;;;;;;;6.47;5.00;;;12.90;17.40;;;;;;5027546;28;46582;-62
2022/04/20 12:49:25;;;;;;;6.30;4.47;;;12.90;17.40;;;;;;5027049;28;46434;-62
2022/04/20 12:51:51;;;;;;;9.00;5.00;;;12.90;17.40;;;;;;5036310;28;46824;-63
2022/04/20 12:54:24;;;;;;;5.97;4.27;;;12.70;17.20;;;;;;5030001;28;46248;-63
2022/04/20 13:02:19;;;;;;;6.80;4.50;;;12.50;17.10;;;;;;5031236;28;45887;-63
2022/04/20 13:04:48;;;;;;;7.27;4.70;;;12.70;17.20;;;;;;5028478;28;47507;-63
2022/04/20 13:07:14;;;;;;;7.70;5.40;;;12.90;17.40;;;;;;5029469;28;46031;-63
2022/04/20 13:09:40;;;;;;;7.07;4.73;;;12.80;17.30;;;;;;5030434;28;46425;-63
2022/04/20 13:12:06;;;;;;;8.07;4.50;;;12.90;17.40;;;;;;5023020;28;46450;-62
2022/04/20 13:14:32;;;;;;;6.93;4.03;;;12.90;17.50;;;;;;5030183;28;46730;-63
2022/04/20 13:16:58;;;;;;;6.40;4.37;;;12.90;17.40;;;;;;5031115;28;46389;-62
2022/04/20 13:19:23;;;;;;;6.07;4.00;;;13.00;16.70;;;;;;5034580;28;46380;-63
2022/04/20 13:21:49;;;;;;;7.30;4.37;;;12.90;16.60;;;;;;5028275;28;46403;-64
2022/04/20 13:27:54;;;;;;;6.00;4.60;;;12.80;16.50;;;;;;5032590;28;46467;-64
2022/04/20 13:29:46;;;;;;;7.60;4.40;;;13.10;17.00;;;;;;5029279;28;46426;-64
2022/04/20 13:32:12;;;;;;;6.10;3.90;;;13.10;16.40;;;;;;5032575;28;46712;-65
2022/04/20 13:34:38;;;;;;;7.50;5.30;;;13.00;16.60;;;;;;5027980;28;47247;-64